Time;durP1;ratioP1;P1;durP2;ratioP2;P2;SDS_P1;SDS_P2;PMS_P1;PMS_P2;Temp;Humidity;BMP_temperature;BMP_pressure;BME280_temperature;BME280_humidity;BME280_pressure;Samples;Min_cycle;Max_cycle;Signal;HPM_P1;HPM_P2
2022/01/28 00:01:21;;;;;;;3.33;1.10;;;4.30;97.30;;;;;;5087526;28;20433;-88
2022/01/28 00:03:46;;;;;;;2.87;1.10;;;4.30;97.30;;;;;;5074575;28;20405;-87
2022/01/28 00:06:12;;;;;;;1.47;1.37;;;4.20;97.30;;;;;;5074331;28;20409;-89
2022/01/28 00:08:38;;;;;;;4.40;1.30;;;4.20;97.30;;;;;;5074108;28;20181;-87
2022/01/28 00:11:03;;;;;;;4.43;1.07;;;4.20;97.30;;;;;;5074129;28;20677;-87
2022/01/28 00:39:14;;;;;;;3.17;1.40;;;4.40;97.30;;;;;;5092206;28;20464;-88
2022/01/28 00:41:39;;;;;;;3.37;1.53;;;4.40;97.30;;;;;;5073845;28;20668;-87
2022/01/28 00:44:05;;;;;;;3.50;1.40;;;4.40;97.30;;;;;;5073963;28;20420;-88
2022/01/28 00:46:31;;;;;;;4.90;2.00;;;4.40;97.30;;;;;;5074063;28;20175;-89
2022/01/28 00:48:56;;;;;;;4.90;1.40;;;4.50;97.30;;;;;;5074167;28;20227;-88
2022/01/28 00:51:22;;;;;;;8.77;1.90;;;4.50;97.30;;;;;;5074050;28;20255;-88
2022/01/28 00:53:48;;;;;;;12.10;2.07;;;4.50;97.30;;;;;;5092286;28;20217;-88
2022/01/28 00:56:14;;;;;;;5.07;1.60;;;4.50;97.30;;;;;;5074617;28;20436;-87
2022/01/28 00:58:39;;;;;;;5.83;1.57;;;4.50;97.30;;;;;;5074136;28;20202;-88
2022/01/28 01:01:05;;;;;;;2.23;1.10;;;4.50;97.30;;;;;;5074322;28;20194;-88
2022/01/28 01:03:30;;;;;;;6.93;2.03;;;4.60;97.30;;;;;;5073940;28;20175;-88
2022/01/28 01:05:56;;;;;;;4.13;1.50;;;4.70;97.30;;;;;;5074026;28;20247;-89
2022/01/28 01:08:22;;;;;;;4.47;1.50;;;4.70;97.30;;;;;;5074198;28;20637;-87
2022/01/28 01:10:49;;;;;;;4.73;1.40;;;4.70;97.30;;;;;;5080232;28;20257;-88
2022/01/28 01:13:15;;;;;;;8.90;2.27;;;4.70;97.30;;;;;;5091932;28;20167;-87
2022/01/28 01:15:44;;;;;;;10.63;1.60;;;4.80;97.30;;;;;;5091872;28;20411;-88
2022/01/28 01:18:18;;;;;;;4.70;1.40;;;4.80;97.30;;;;;;5073851;28;20289;-88
2022/01/28 01:23:21;;;;;;;5.10;2.13;;;4.80;97.30;;;;;;5096078;28;20979;-87
2022/01/28 01:25:52;;;;;;;2.97;1.30;;;4.80;97.30;;;;;;5077285;28;20404;-88
2022/01/28 01:28:20;;;;;;;5.53;1.60;;;4.80;97.30;;;;;;5077480;28;20492;-87
2022/01/28 01:30:46;;;;;;;2.90;1.47;;;4.80;97.30;;;;;;5080333;28;20451;-87
2022/01/28 01:33:13;;;;;;;7.90;1.67;;;4.80;97.30;;;;;;5095381;28;20835;-87
2022/01/28 01:35:40;;;;;;;8.70;2.00;;;4.80;97.30;;;;;;5076840;28;20436;-87
2022/01/28 01:38:08;;;;;;;6.90;1.60;;;4.80;97.30;;;;;;5095089;28;20552;-88
2022/01/28 01:40:42;;;;;;;6.83;1.40;;;4.80;97.30;;;;;;5076999;28;20958;-88
2022/01/28 01:43:14;;;;;;;1.70;1.20;;;4.90;97.30;;;;;;5077317;28;20439;-87
2022/01/28 01:53:45;;;;;;;4.30;2.07;;;4.90;97.30;;;;;;5095518;28;20542;-87
2022/01/28 01:56:12;;;;;;;1.57;1.50;;;4.90;97.30;;;;;;5095062;28;21044;-87
2022/01/28 01:58:38;;;;;;;3.90;1.50;;;4.90;97.30;;;;;;5076784;28;20195;-88
2022/01/28 02:01:04;;;;;;;1.63;1.43;;;4.90;97.30;;;;;;5094642;28;20462;-88
2022/01/28 02:03:29;;;;;;;2.70;1.20;;;4.90;97.30;;;;;;5076721;28;20497;-88
2022/01/28 02:05:58;;;;;;;5.30;1.50;;;4.90;97.30;;;;;;5076369;28;20182;-88
2022/01/28 02:08:30;;;;;;;5.93;1.80;;;4.90;97.30;;;;;;5076498;28;20424;-87
2022/01/28 02:10:57;;;;;;;8.07;1.80;;;4.90;97.30;;;;;;5094410;28;20436;-87
2022/01/28 02:13:25;;;;;;;2.97;1.30;;;4.80;97.30;;;;;;5076814;28;20953;-86
2022/01/28 02:15:50;;;;;;;8.17;1.40;;;4.80;97.30;;;;;;5076618;28;20424;-88
2022/01/28 02:18:16;;;;;;;13.27;1.70;;;4.80;97.30;;;;;;5076361;28;20456;-88
2022/01/28 02:20:44;;;;;;;5.73;1.60;;;4.80;97.30;;;;;;5062692;28;20685;-88
2022/01/28 02:23:09;;;;;;;11.20;2.03;;;4.80;97.30;;;;;;5073894;28;20164;-89
2022/01/28 02:25:35;;;;;;;7.63;1.87;;;4.80;97.30;;;;;;5059899;28;20431;-88
2022/01/28 02:28:04;;;;;;;2.27;1.40;;;4.80;97.30;;;;;;5076167;28;20320;-88
2022/01/28 02:30:30;;;;;;;7.30;1.40;;;4.80;97.30;;;;;;5094667;28;20754;-88
2022/01/28 02:33:09;;;;;;;18.23;3.33;;;4.80;97.30;;;;;;5075581;28;21138;-87
2022/01/28 02:35:35;;;;;;;4.50;1.80;;;4.80;97.30;;;;;;5076550;28;20404;-87
2022/01/28 02:38:01;;;;;;;11.30;1.83;;;4.80;97.30;;;;;;5094068;28;20448;-88
2022/01/28 02:40:26;;;;;;;3.83;1.80;;;4.80;97.30;;;;;;5075872;28;20475;-88
2022/01/28 02:43:15;;;;;;;6.10;2.00;;;4.80;97.30;;;;;;5075716;28;20174;-86
2022/01/28 02:45:42;;;;;;;10.10;1.90;;;4.80;97.30;;;;;;5094001;28;20151;-88
2022/01/28 02:48:15;;;;;;;12.10;2.10;;;4.70;97.30;;;;;;5075757;28;20413;-88
2022/01/28 02:51:03;;;;;;;5.87;1.80;;;4.70;97.30;;;;;;5075800;28;20447;-88
2022/01/28 02:53:36;;;;;;;7.20;1.53;;;4.70;97.30;;;;;;5093518;28;20421;-88
2022/01/28 02:56:11;;;;;;;9.63;2.10;;;4.70;97.30;;;;;;5093822;28;20396;-87
2022/01/28 02:58:36;;;;;;;7.00;2.20;;;4.60;97.30;;;;;;5075690;28;20452;-87
2022/01/28 03:01:03;;;;;;;4.83;1.73;;;4.60;97.30;;;;;;5075637;28;20448;-88
2022/01/28 03:03:28;;;;;;;6.23;2.00;;;4.60;97.30;;;;;;5075499;28;20170;-88
2022/01/28 03:05:54;;;;;;;2.30;1.30;;;4.70;97.30;;;;;;5075699;28;20408;-88
2022/01/28 03:08:28;;;;;;;3.07;1.53;;;4.70;97.30;;;;;;5075405;28;21027;-87
2022/01/28 03:11:29;;;;;;;5.07;1.70;;;4.70;97.30;;;;;;5074411;28;20205;-87
2022/01/28 03:16:30;;;;;;;11.33;2.07;;;4.60;97.30;;;;;;5093238;28;20419;-87
2022/01/28 03:19:00;;;;;;;5.13;1.50;;;4.60;97.30;;;;;;5093366;28;21052;-87
2022/01/28 03:23:54;;;;;;;6.43;1.90;;;4.50;97.30;;;;;;5096692;28;20423;-88
2022/01/28 03:26:20;;;;;;;7.83;1.80;;;4.50;97.30;;;;;;5075248;28;20416;-87
2022/01/28 03:28:46;;;;;;;10.23;1.97;;;4.50;97.30;;;;;;5075187;28;20208;-88
2022/01/28 03:31:11;;;;;;;11.50;2.07;;;4.60;97.30;;;;;;5093028;28;20205;-87
2022/01/28 03:33:37;;;;;;;12.57;4.17;;;4.60;97.30;;;;;;5093049;28;20186;-87
2022/01/28 03:36:07;;;;;;;7.70;1.97;;;4.70;97.30;;;;;;5074947;28;20178;-86
2022/01/28 03:38:33;;;;;;;8.40;2.03;;;4.70;97.30;;;;;;5074782;28;20298;-87
2022/01/28 03:40:58;;;;;;;7.93;2.50;;;4.80;97.30;;;;;;5092806;28;20484;-86
2022/01/28 03:43:24;;;;;;;13.90;2.40;;;4.80;97.30;;;;;;5074599;28;20179;-87
2022/01/28 03:45:49;;;;;;;15.07;2.57;;;4.90;97.30;;;;;;5074823;28;20204;-87
2022/01/28 03:48:15;;;;;;;8.17;1.70;;;4.90;97.30;;;;;;5074811;28;20179;-87
2022/01/28 03:50:40;;;;;;;6.10;1.70;;;4.90;97.30;;;;;;5074534;28;20695;-87
2022/01/28 03:53:07;;;;;;;8.57;2.00;;;4.90;97.30;;;;;;5074597;28;20231;-87
2022/01/28 03:55:33;;;;;;;11.93;2.27;;;4.90;97.30;;;;;;5075045;28;20178;-87
2022/01/28 03:57:59;;;;;;;9.57;2.00;;;4.90;97.30;;;;;;5074509;28;20464;-87
2022/01/28 04:00:28;;;;;;;12.43;2.20;;;4.90;97.30;;;;;;5074473;28;20190;-87
2022/01/28 04:03:08;;;;;;;6.10;2.00;;;5.00;97.30;;;;;;5092327;28;20408;-86
2022/01/28 04:13:31;;;;;;;20.57;1.90;;;5.00;97.30;;;;;;5092571;28;20407;-87
2022/01/28 04:18:25;;;;;;;11.10;1.97;;;5.00;97.30;;;;;;5092868;28;20209;-87
2022/01/28 04:20:51;;;;;;;4.80;1.67;;;5.00;97.30;;;;;;5074545;28;20432;-88
2022/01/28 04:23:18;;;;;;;8.43;2.00;;;5.00;97.30;;;;;;5074240;28;20751;-87
2022/01/28 04:25:44;;;;;;;9.77;2.20;;;5.00;97.30;;;;;;5074494;28;20593;-88
2022/01/28 04:28:09;;;;;;;7.87;1.97;;;5.00;97.30;;;;;;5074223;28;20482;-87
2022/01/28 04:30:35;;;;;;;5.77;2.33;;;4.90;97.30;;;;;;5074140;28;20209;-87
2022/01/28 04:33:00;;;;;;;5.07;2.20;;;4.90;97.30;;;;;;5074525;28;20186;-87
2022/01/28 04:35:26;;;;;;;11.70;2.33;;;4.90;97.30;;;;;;5074453;28;20360;-88
2022/01/28 04:40:19;;;;;;;10.50;2.30;;;4.80;97.30;;;;;;5092398;28;20226;-88
2022/01/28 04:45:26;;;;;;;4.80;1.30;;;4.80;97.30;;;;;;5092704;28;20492;-87
2022/01/28 04:48:08;;;;;;;8.10;2.20;;;4.80;97.30;;;;;;5074249;28;20180;-87
2022/01/28 04:53:27;;;;;;;8.03;2.50;;;4.80;97.30;;;;;;5092801;28;20469;-87
2022/01/28 04:58:41;;;;;;;4.80;1.50;;;4.80;97.30;;;;;;5096172;28;20477;-87
2022/01/28 05:03:57;;;;;;;26.67;2.40;;;4.80;97.30;;;;;;5096483;28;20414;-86
2022/01/28 05:06:54;;;;;;;5.17;2.03;;;4.80;97.30;;;;;;5078143;28;20167;-87
2022/01/28 05:09:50;;;;;;;12.53;2.13;;;4.80;97.30;;;;;;5101128;28;20416;-86
2022/01/28 05:26:11;;;;;;;8.37;2.00;;;4.80;97.30;;;;;;5096193;28;20392;-86
2022/01/28 05:28:35;;;;;;;5.33;1.97;;;4.80;97.30;;;;;;5096047;28;20408;-86
2022/01/28 05:31:01;;;;;;;9.70;3.70;;;4.70;97.30;;;;;;5077590;28;20432;-86
2022/01/28 05:33:26;;;;;;;10.17;1.80;;;4.70;97.30;;;;;;5077775;28;20906;-86
2022/01/28 05:35:52;;;;;;;6.47;2.07;;;4.60;97.30;;;;;;5077875;28;20189;-85
2022/01/28 05:38:17;;;;;;;4.30;2.50;;;4.60;97.30;;;;;;5077694;28;20624;-86
2022/01/28 05:40:43;;;;;;;10.63;2.23;;;4.50;97.30;;;;;;5077540;28;20328;-87
2022/01/28 05:43:16;;;;;;;13.23;2.30;;;4.50;97.30;;;;;;5077160;28;20179;-87
2022/01/28 05:45:41;;;;;;;11.43;2.50;;;4.40;97.30;;;;;;5095056;28;20167;-86
2022/01/28 05:48:07;;;;;;;9.13;2.10;;;4.40;97.30;;;;;;5077383;28;20953;-86
2022/01/28 05:50:32;;;;;;;8.20;2.07;;;4.30;97.30;;;;;;5082526;28;20205;-86
2022/01/28 05:53:00;;;;;;;6.13;1.77;;;4.30;97.30;;;;;;5095326;28;20185;-86
2022/01/28 05:55:25;;;;;;;4.00;1.90;;;4.20;97.30;;;;;;5076963;28;20190;-87
2022/01/28 05:57:51;;;;;;;11.13;2.00;;;4.20;97.30;;;;;;5077030;28;20452;-87
2022/01/28 06:00:22;;;;;;;5.97;2.13;;;4.30;97.30;;;;;;5068904;23;20229;-90
2022/01/28 06:02:47;;;;;;;4.70;1.47;;;4.30;97.30;;;;;;5038391;28;20172;-90
2022/01/28 06:05:13;;;;;;;7.60;2.50;;;4.20;97.30;;;;;;5039113;28;20436;-91
2022/01/28 06:07:41;;;;;;;11.70;1.90;;;4.10;97.30;;;;;;5071516;28;20259;-90
2022/01/28 06:10:11;;;;;;;7.77;1.97;;;4.10;97.30;;;;;;5053412;28;20527;-92
2022/01/28 06:12:41;;;;;;;5.93;1.73;;;4.00;97.30;;;;;;5058550;28;20421;-90
2022/01/28 06:15:08;;;;;;;6.90;1.50;;;4.00;97.30;;;;;;5077385;28;20773;-91
2022/01/28 06:17:33;;;;;;;15.10;3.00;;;4.00;97.30;;;;;;5058677;28;20410;-90
2022/01/28 06:19:59;;;;;;;3.83;1.60;;;4.00;97.30;;;;;;5058458;28;20452;-91
2022/01/28 06:22:24;;;;;;;5.90;1.47;;;4.00;97.30;;;;;;5059515;28;20243;-91
2022/01/28 06:24:50;;;;;;;5.70;1.40;;;3.90;97.30;;;;;;5058896;28;20199;-90
2022/01/28 06:27:15;;;;;;;6.10;1.30;;;3.90;97.30;;;;;;5058890;28;20752;-90
2022/01/28 06:29:41;;;;;;;9.93;1.73;;;3.90;97.30;;;;;;5076750;28;20203;-91
2022/01/28 06:32:07;;;;;;;10.13;2.10;;;3.90;97.30;;;;;;5059443;28;20175;-90
2022/01/28 06:34:33;;;;;;;4.93;1.80;;;3.90;97.30;;;;;;5076809;28;20179;-90
2022/01/28 06:36:59;;;;;;;9.57;3.80;;;3.90;97.30;;;;;;5061003;28;20425;-90
2022/01/28 06:39:24;;;;;;;9.20;2.17;;;4.00;97.30;;;;;;5069333;28;20462;-91
2022/01/28 06:41:50;;;;;;;13.70;3.30;;;4.00;97.30;;;;;;5068177;28;20191;-90
2022/01/28 06:44:15;;;;;;;11.97;3.70;;;4.00;97.30;;;;;;5058386;28;20221;-89
2022/01/28 06:46:41;;;;;;;8.67;2.07;;;4.00;97.30;;;;;;5058018;28;20183;-89
2022/01/28 06:49:06;;;;;;;7.70;2.63;;;4.00;97.30;;;;;;5076061;28;20624;-90
2022/01/28 06:51:34;;;;;;;9.73;2.00;;;4.00;97.30;;;;;;5057629;28;20258;-91
2022/01/28 06:54:00;;;;;;;5.23;1.77;;;4.10;97.30;;;;;;5057880;28;20167;-90
2022/01/28 06:56:26;;;;;;;11.40;1.93;;;4.10;97.30;;;;;;5058030;28;20421;-89
2022/01/28 06:58:51;;;;;;;4.07;2.17;;;4.10;97.30;;;;;;5057697;28;20317;-90
2022/01/28 07:01:17;;;;;;;7.30;2.37;;;4.10;97.30;;;;;;5057207;28;20324;-90
2022/01/28 07:03:42;;;;;;;11.87;3.53;;;4.10;97.30;;;;;;5057533;28;20205;-91
2022/01/28 07:06:07;;;;;;;13.43;2.57;;;4.10;97.30;;;;;;5057446;28;20594;-91
2022/01/28 07:08:33;;;;;;;5.70;1.97;;;4.10;97.30;;;;;;5058071;28;20190;-91
2022/01/28 07:10:58;;;;;;;17.93;2.30;;;4.20;97.30;;;;;;5056123;28;20258;-91
2022/01/28 07:13:24;;;;;;;18.63;1.80;;;4.20;97.30;;;;;;5054057;28;20179;-89
2022/01/28 07:15:52;;;;;;;19.30;2.83;;;4.20;97.30;;;;;;5056428;28;20185;-91
2022/01/28 07:18:17;;;;;;;6.03;2.13;;;4.20;97.30;;;;;;5057662;28;20195;-90
2022/01/28 07:20:43;;;;;;;20.20;3.17;;;4.20;97.30;;;;;;5057326;28;20516;-90
2022/01/28 07:23:08;;;;;;;7.23;2.27;;;4.20;97.30;;;;;;5057689;28;20206;-92
2022/01/28 07:25:34;;;;;;;6.23;2.40;;;4.20;97.30;;;;;;5057639;28;20179;-90
2022/01/28 07:27:59;;;;;;;16.53;3.60;;;4.20;97.30;;;;;;5057535;28;20187;-91
2022/01/28 07:30:25;;;;;;;17.10;2.03;;;4.20;97.30;;;;;;5058084;28;20209;-91
2022/01/28 07:32:52;;;;;;;8.17;2.80;;;4.20;97.30;;;;;;5075391;28;20236;-90
2022/01/28 07:35:17;;;;;;;14.73;2.70;;;4.30;97.30;;;;;;5057278;28;20190;-90
2022/01/28 07:37:43;;;;;;;9.63;3.10;;;4.30;97.30;;;;;;5075162;28;20461;-90
2022/01/28 07:40:09;;;;;;;9.10;2.03;;;4.30;97.30;;;;;;5058606;28;20195;-91
2022/01/28 07:42:37;;;;;;;4.97;1.87;;;4.30;97.30;;;;;;5059455;28;20728;-91
2022/01/28 07:45:07;;;;;;;15.50;2.60;;;4.30;97.30;;;;;;5076534;28;20417;-90
2022/01/28 07:47:37;;;;;;;24.33;2.70;;;4.30;97.30;;;;;;5076615;28;20420;-91
2022/01/28 07:50:07;;;;;;;11.80;1.60;;;4.30;97.30;;;;;;5058705;28;20456;-91
2022/01/28 07:52:33;;;;;;;5.93;1.93;;;4.20;97.30;;;;;;5058765;28;20444;-91
2022/01/28 07:54:59;;;;;;;5.97;2.00;;;4.20;97.30;;;;;;5059519;28;20413;-91
2022/01/28 07:57:25;;;;;;;10.87;2.53;;;4.10;97.30;;;;;;5059034;28;20455;-91
2022/01/28 07:59:50;;;;;;;7.43;1.87;;;4.10;97.30;;;;;;5056913;28;20675;-90
2022/01/28 08:02:16;;;;;;;9.53;2.20;;;4.20;97.30;;;;;;5057167;28;20168;-91
2022/01/28 08:04:41;;;;;;;15.63;2.97;;;4.10;97.30;;;;;;5075755;28;20220;-91
2022/01/28 08:07:07;;;;;;;7.77;1.87;;;4.20;97.30;;;;;;5057205;28;20175;-91
2022/01/28 08:09:33;;;;;;;16.00;3.13;;;4.20;97.30;;;;;;5040660;28;20318;-91
2022/01/28 08:11:59;;;;;;;15.73;2.53;;;4.30;97.30;;;;;;5057897;28;20617;-91
2022/01/28 08:14:25;;;;;;;23.17;3.50;;;4.30;97.30;;;;;;5058213;28;20179;-91
2022/01/28 08:16:51;;;;;;;5.67;2.27;;;4.30;97.30;;;;;;5059204;28;20444;-91
2022/01/28 08:19:16;;;;;;;10.73;2.57;;;4.30;97.30;;;;;;5058892;28;20461;-90
2022/01/28 08:21:42;;;;;;;11.30;2.30;;;4.30;97.30;;;;;;5058509;28;20186;-91
2022/01/28 08:24:07;;;;;;;5.83;2.00;;;4.30;97.30;;;;;;5059393;28;20175;-93
2022/01/28 08:26:33;;;;;;;6.77;2.53;;;4.40;97.30;;;;;;5059215;28;20179;-90
2022/01/28 08:28:58;;;;;;;11.30;2.60;;;4.40;97.30;;;;;;5059182;28;20676;-91
2022/01/28 08:31:24;;;;;;;7.63;2.20;;;4.40;97.30;;;;;;5059214;28;20183;-92
2022/01/28 08:33:49;;;;;;;24.00;4.07;;;4.40;97.30;;;;;;5059126;28;20969;-92
2022/01/28 08:36:15;;;;;;;14.10;1.90;;;4.40;97.30;;;;;;5059130;28;20274;-92
2022/01/28 08:38:44;;;;;;;4.70;2.70;;;4.40;97.30;;;;;;5058868;28;20774;-92
2022/01/28 08:41:12;;;;;;;13.40;2.90;;;4.50;97.30;;;;;;5058743;28;20222;-92
2022/01/28 08:43:42;;;;;;;6.73;3.90;;;4.50;97.30;;;;;;5059474;28;20445;-90
2022/01/28 08:46:08;;;;;;;10.93;2.43;;;4.50;97.30;;;;;;5058510;28;20426;-92
2022/01/28 08:48:34;;;;;;;5.83;2.00;;;4.50;97.30;;;;;;5058912;28;20421;-91
2022/01/28 08:51:00;;;;;;;11.20;1.73;;;4.50;97.30;;;;;;5059364;28;21196;-93
2022/01/28 08:53:25;;;;;;;19.33;2.60;;;4.50;97.30;;;;;;5058537;28;20175;-92
2022/01/28 08:55:51;;;;;;;15.90;2.07;;;4.50;97.30;;;;;;5059229;28;20811;-92
2022/01/28 08:58:17;;;;;;;8.80;2.47;;;4.50;97.30;;;;;;5058310;28;20202;-91
2022/01/28 09:00:46;;;;;;;7.23;2.73;;;4.50;97.30;;;;;;5057115;28;20476;-92
2022/01/28 09:03:14;;;;;;;11.13;2.47;;;4.50;97.30;;;;;;5057931;28;20182;-91
2022/01/28 09:05:40;;;;;;;12.67;2.60;;;4.50;97.30;;;;;;5057920;28;20417;-92
2022/01/28 09:08:08;;;;;;;9.03;2.37;;;4.50;97.30;;;;;;5057996;28;20413;-91
2022/01/28 09:10:37;;;;;;;7.83;2.13;;;4.50;97.30;;;;;;5076722;28;20191;-93
2022/01/28 09:15:37;;;;;;;12.70;2.97;;;4.80;97.30;;;;;;5076382;28;20417;-91
2022/01/28 09:18:03;;;;;;;6.00;2.13;;;4.80;97.30;;;;;;5059080;28;20453;-92
2022/01/28 09:20:31;;;;;;;8.80;2.53;;;4.90;97.30;;;;;;5057573;28;20457;-91
2022/01/28 09:22:58;;;;;;;16.67;2.73;;;4.80;97.30;;;;;;5057923;28;20439;-91
2022/01/28 09:25:24;;;;;;;7.77;2.37;;;4.90;97.30;;;;;;5058946;28;20479;-91
2022/01/28 09:27:49;;;;;;;11.20;2.53;;;4.90;97.30;;;;;;5056888;28;20931;-92
2022/01/28 09:30:15;;;;;;;19.50;2.47;;;4.90;97.30;;;;;;5076068;28;20255;-89
2022/01/28 09:32:41;;;;;;;4.40;2.10;;;4.90;97.30;;;;;;5057967;28;20179;-92
2022/01/28 09:35:07;;;;;;;12.80;2.80;;;4.90;97.30;;;;;;5059057;28;20669;-90
2022/01/28 09:37:34;;;;;;;14.17;2.87;;;5.00;97.30;;;;;;5058545;28;20274;-90
2022/01/28 09:40:00;;;;;;;19.17;3.57;;;5.00;97.30;;;;;;5057795;28;20456;-91
2022/01/28 09:42:29;;;;;;;5.17;2.27;;;5.00;97.30;;;;;;5076798;28;20757;-90
2022/01/28 09:44:55;;;;;;;8.40;2.20;;;5.10;97.30;;;;;;5061777;28;20434;-91
2022/01/28 09:47:21;;;;;;;13.87;2.77;;;5.00;97.30;;;;;;5061104;28;20410;-91
2022/01/28 09:49:47;;;;;;;3.40;2.03;;;4.90;97.30;;;;;;5060523;28;20333;-91
2022/01/28 09:52:13;;;;;;;8.23;2.50;;;4.80;97.30;;;;;;5061080;28;20990;-91
2022/01/28 09:54:39;;;;;;;6.30;2.17;;;4.80;97.30;;;;;;5059981;28;20422;-91
2022/01/28 09:57:06;;;;;;;8.67;2.33;;;5.00;97.30;;;;;;5061625;28;20198;-91
2022/01/28 09:59:33;;;;;;;12.53;3.50;;;5.00;97.30;;;;;;5060760;28;20473;-91
2022/01/28 10:01:58;;;;;;;19.43;2.70;;;5.10;97.30;;;;;;5061589;28;20440;-90
2022/01/28 10:04:24;;;;;;;9.80;2.53;;;5.10;97.30;;;;;;5061631;28;20436;-90
2022/01/28 10:06:50;;;;;;;9.63;2.13;;;4.90;97.30;;;;;;5062943;28;20171;-92
2022/01/28 10:09:18;;;;;;;15.70;2.13;;;4.80;97.30;;;;;;5062408;28;20206;-91
2022/01/28 10:11:47;;;;;;;8.00;2.10;;;4.70;97.30;;;;;;5062576;28;20819;-91
2022/01/28 10:14:16;;;;;;;22.83;2.90;;;4.70;97.30;;;;;;5080568;28;20467;-91
2022/01/28 10:16:42;;;;;;;7.77;2.20;;;4.70;97.30;;;;;;5061826;28;20456;-91
2022/01/28 10:19:11;;;;;;;6.90;2.27;;;4.80;97.30;;;;;;5061440;28;20468;-91
2022/01/28 10:21:46;;;;;;;8.77;2.30;;;5.00;97.30;;;;;;5059740;28;20409;-91
2022/01/28 10:24:25;;;;;;;9.20;2.37;;;5.00;97.30;;;;;;5065706;28;20456;-89
2022/01/28 10:27:09;;;;;;;12.80;2.30;;;5.00;97.30;;;;;;5069831;28;20449;-90
2022/01/28 10:29:43;;;;;;;7.73;2.30;;;4.90;97.30;;;;;;5074896;28;20479;-90
2022/01/28 10:32:16;;;;;;;22.47;3.07;;;4.80;97.30;;;;;;5075984;28;20439;-91
2022/01/28 10:34:49;;;;;;;16.83;3.00;;;4.80;97.30;;;;;;5075434;28;20405;-89
2022/01/28 10:37:27;;;;;;;12.83;3.03;;;4.80;97.30;;;;;;5078125;28;20423;-90
2022/01/28 10:39:59;;;;;;;7.53;1.90;;;4.90;97.30;;;;;;5078587;28;20507;-91
2022/01/28 10:42:41;;;;;;;9.93;2.70;;;5.00;97.30;;;;;;5093943;28;20401;-91
2022/01/28 10:45:11;;;;;;;15.50;2.13;;;5.00;97.30;;;;;;5077596;28;20520;-91
2022/01/28 10:47:46;;;;;;;10.10;2.43;;;5.20;97.30;;;;;;5076785;28;20417;-91
2022/01/28 10:50:19;;;;;;;10.87;2.83;;;5.30;97.30;;;;;;5073795;28;20440;-91
2022/01/28 10:52:48;;;;;;;16.33;2.60;;;5.40;96.90;;;;;;5076231;28;20414;-90
2022/01/28 10:55:19;;;;;;;15.07;3.07;;;5.40;97.20;;;;;;5079054;28;20418;-90
2022/01/28 10:58:02;;;;;;;17.83;2.60;;;5.50;97.30;;;;;;5078773;28;20421;-91
2022/01/28 11:00:35;;;;;;;17.67;2.63;;;5.50;95.80;;;;;;5077023;28;20479;-89
2022/01/28 11:03:03;;;;;;;8.00;2.10;;;5.50;95.20;;;;;;5076929;28;20401;-92
2022/01/28 11:05:31;;;;;;;13.40;4.70;;;5.60;95.50;;;;;;5076904;28;20425;-90
2022/01/28 11:07:58;;;;;;;12.13;2.63;;;5.60;94.90;;;;;;5080869;28;20416;-91
2022/01/28 11:10:24;;;;;;;13.33;2.13;;;5.50;96.20;;;;;;5080339;28;20981;-91
2022/01/28 11:12:51;;;;;;;18.03;3.10;;;5.50;97.10;;;;;;5077601;28;20418;-92
2022/01/28 11:15:17;;;;;;;9.10;2.10;;;5.50;96.70;;;;;;5077572;28;20180;-90
2022/01/28 11:17:42;;;;;;;13.77;3.37;;;5.60;96.90;;;;;;5078826;28;20434;-91
2022/01/28 11:20:09;;;;;;;16.43;2.97;;;5.60;97.00;;;;;;5077975;28;20195;-90
2022/01/28 11:22:55;;;;;;;24.40;5.10;;;5.70;96.70;;;;;;5095214;28;20213;-92
2022/01/28 11:25:35;;;;;;;9.23;3.47;;;5.70;96.90;;;;;;5096128;28;20455;-91
2022/01/28 11:28:13;;;;;;;5.73;1.97;;;5.70;96.40;;;;;;5076544;28;20493;-90
2022/01/28 11:30:50;;;;;;;11.73;3.17;;;5.60;96.20;;;;;;5078711;28;20504;-91
2022/01/28 11:33:16;;;;;;;7.40;2.40;;;5.50;96.90;;;;;;5077377;28;20396;-91
2022/01/28 11:36:00;;;;;;;29.13;2.70;;;5.50;97.30;;;;;;5061880;28;20430;-91
2022/01/28 11:38:26;;;;;;;9.63;1.93;;;5.40;97.30;;;;;;5055333;28;20446;-92
2022/01/28 11:41:13;;;;;;;7.07;2.20;;;5.40;97.30;;;;;;5068807;28;20414;-91
2022/01/28 11:43:56;;;;;;;12.37;2.50;;;5.30;97.30;;;;;;5043623;28;20438;-92
2022/01/28 11:46:31;;;;;;;10.43;2.00;;;5.30;97.30;;;;;;5046090;28;20398;-91
2022/01/28 11:49:17;;;;;;;14.73;2.20;;;5.30;97.30;;;;;;5046843;28;20453;-91
2022/01/28 11:51:43;;;;;;;10.23;2.37;;;5.30;97.30;;;;;;5044522;28;20414;-92
2022/01/28 11:54:11;;;;;;;15.37;3.27;;;5.30;97.30;;;;;;5043780;28;20406;-91
2022/01/28 11:56:56;;;;;;;10.97;2.50;;;5.30;97.30;;;;;;5062495;28;20407;-91
2022/01/28 11:59:27;;;;;;;13.20;2.43;;;5.30;97.30;;;;;;5041824;28;20480;-92
2022/01/28 12:01:52;;;;;;;14.03;2.30;;;5.30;97.30;;;;;;5042334;28;20414;-91
2022/01/28 12:04:27;;;;;;;11.23;3.20;;;5.40;97.30;;;;;;5045076;28;20509;-92
2022/01/28 12:07:09;;;;;;;10.53;2.57;;;5.40;97.30;;;;;;5044965;28;20167;-92
2022/01/28 12:09:37;;;;;;;15.93;2.50;;;5.40;97.30;;;;;;5044463;28;20442;-91
2022/01/28 12:12:05;;;;;;;18.77;3.00;;;5.50;97.30;;;;;;5040857;28;20417;-91
2022/01/28 12:14:54;;;;;;;13.60;2.87;;;5.60;97.30;;;;;;5037333;28;20784;-92
2022/01/28 12:17:33;;;;;;;11.97;2.43;;;5.60;97.30;;;;;;5037849;28;20406;-92
2022/01/28 12:20:13;;;;;;;7.73;2.83;;;5.70;96.60;;;;;;5038382;28;20968;-92
2022/01/28 12:23:10;;;;;;;7.60;2.07;;;5.70;96.70;;;;;;5056282;28;20402;-91
2022/01/28 12:25:36;;;;;;;9.83;2.10;;;5.70;96.80;;;;;;5038110;28;20406;-92
2022/01/28 12:28:20;;;;;;;11.50;2.30;;;5.70;96.00;;;;;;5037998;28;20441;-92
2022/01/28 12:30:56;;;;;;;8.50;2.00;;;5.90;96.40;;;;;;5055721;28;20184;-91
2022/01/28 12:33:23;;;;;;;6.93;1.80;;;6.00;95.40;;;;;;5038613;28;20442;-92
2022/01/28 12:35:51;;;;;;;7.30;2.07;;;5.90;95.30;;;;;;5037762;28;20410;-92
2022/01/28 12:38:22;;;;;;;8.80;2.10;;;5.90;95.60;;;;;;5055406;28;20816;-91
2022/01/28 12:40:51;;;;;;;10.83;2.00;;;6.00;96.30;;;;;;5038518;28;20419;-92
2022/01/28 12:43:23;;;;;;;11.40;2.17;;;6.00;96.80;;;;;;5037222;28;20413;-91
2022/01/28 12:46:04;;;;;;;18.10;2.50;;;6.00;97.30;;;;;;5038966;28;20415;-92
2022/01/28 12:48:30;;;;;;;10.80;2.00;;;6.00;95.80;;;;;;5037878;28;20414;-92
2022/01/28 12:50:58;;;;;;;12.27;2.37;;;6.00;95.70;;;;;;5037590;28;20509;-92
2022/01/28 12:53:29;;;;;;;10.83;2.30;;;6.00;95.80;;;;;;5037868;28;20207;-92
2022/01/28 12:55:54;;;;;;;10.27;2.47;;;5.90;95.90;;;;;;5038645;28;20414;-91
2022/01/28 12:58:33;;;;;;;16.23;3.93;;;5.80;95.40;;;;;;5041356;28;20507;-92
2022/01/28 13:01:07;;;;;;;7.30;2.40;;;5.80;95.50;;;;;;5038774;28;20729;-91
2022/01/28 13:03:38;;;;;;;16.33;2.60;;;5.90;95.40;;;;;;5037972;28;20406;-93
2022/01/28 13:08:58;;;;;;;9.43;2.33;;;5.90;95.80;;;;;;5057898;28;20971;-92
2022/01/28 13:11:25;;;;;;;11.70;2.57;;;5.90;95.90;;;;;;5063989;28;20406;-92
2022/01/28 13:13:56;;;;;;;13.73;2.70;;;5.90;96.00;;;;;;5054916;28;20422;-91
2022/01/28 13:16:33;;;;;;;14.37;3.33;;;5.90;96.30;;;;;;5041102;28;21051;-92
2022/01/28 13:19:00;;;;;;;7.33;2.50;;;5.90;96.00;;;;;;5042587;28;20991;-92
2022/01/28 13:21:26;;;;;;;19.30;2.20;;;5.90;95.50;;;;;;5044810;28;21110;-92
2022/01/28 13:24:11;;;;;;;7.13;2.73;;;6.00;96.00;;;;;;5042141;28;20450;-92
2022/01/28 13:26:53;;;;;;;9.67;2.17;;;6.10;95.80;;;;;;5041163;28;20410;-92
2022/01/28 13:29:35;;;;;;;11.87;2.10;;;6.50;95.30;;;;;;5041575;28;20430;-92
2022/01/28 13:32:12;;;;;;;10.07;2.30;;;6.80;94.30;;;;;;5042025;28;20426;-92
2022/01/28 13:34:47;;;;;;;16.73;2.73;;;7.00;93.10;;;;;;5060118;28;20414;-93
2022/01/28 13:37:33;;;;;;;3.73;1.70;;;7.30;93.30;;;;;;5040917;28;20490;-92
2022/01/28 13:39:59;;;;;;;7.63;2.40;;;7.60;92.40;;;;;;5041113;28;20464;-91
2022/01/28 13:42:24;;;;;;;15.37;3.23;;;7.50;91.60;;;;;;5041212;28;20438;-92
2022/01/28 13:44:51;;;;;;;12.93;2.53;;;7.50;93.10;;;;;;5040988;28;20410;-92
2022/01/28 13:47:19;;;;;;;10.47;2.80;;;7.70;93.00;;;;;;5041955;28;20176;-93
2022/01/28 13:49:45;;;;;;;12.50;2.40;;;7.90;92.70;;;;;;5043025;28;20996;-91
2022/01/28 13:52:21;;;;;;;11.23;2.63;;;8.00;93.00;;;;;;5041144;28;20528;-92
2022/01/28 13:54:46;;;;;;;20.30;2.30;;;8.10;92.30;;;;;;5042118;28;20172;-92
2022/01/28 13:57:13;;;;;;;11.33;2.20;;;7.90;92.70;;;;;;5041097;28;20418;-93
2022/01/28 13:59:42;;;;;;;15.53;2.23;;;7.80;93.20;;;;;;5042268;28;20239;-93
2022/01/28 14:02:16;;;;;;;11.77;2.90;;;7.70;93.20;;;;;;5042169;28;20501;-93
2022/01/28 14:04:47;;;;;;;7.00;1.83;;;7.70;93.10;;;;;;5061036;28;20397;-91
2022/01/28 14:07:18;;;;;;;6.40;2.43;;;7.60;92.90;;;;;;5041985;28;20466;-92
2022/01/28 14:09:50;;;;;;;14.07;2.30;;;7.30;92.90;;;;;;5039727;28;20484;-92
2022/01/28 14:12:36;;;;;;;13.10;2.80;;;7.00;93.50;;;;;;5039320;28;20426;-90
2022/01/28 14:15:15;;;;;;;12.93;2.67;;;6.70;95.00;;;;;;5041024;28;20472;-92
2022/01/28 14:17:41;;;;;;;12.17;3.87;;;6.50;95.10;;;;;;5059010;28;20414;-92
2022/01/28 14:20:08;;;;;;;11.63;2.10;;;6.40;95.10;;;;;;5041373;28;20444;-91
2022/01/28 14:22:34;;;;;;;17.33;4.37;;;6.30;95.10;;;;;;5040380;28;20410;-91
2022/01/28 14:24:59;;;;;;;20.80;4.73;;;6.20;96.00;;;;;;5040402;28;20442;-93
2022/01/28 14:30:17;;;;;;;13.77;3.00;;;6.00;96.50;;;;;;5057579;28;20200;-92